Time;durP1;ratioP1;P1;durP2;ratioP2;P2;SDS_P1;SDS_P2;PMS_P1;PMS_P2;Temp;Humidity;BMP_temperature;BMP_pressure;BME280_temperature;BME280_humidity;BME280_pressure;Samples;Min_cycle;Max_cycle;Signal;HPM_P1;HPM_P2
2023/12/14 00:00:21;;;;;;;3.50;2.60;;;;;;;;;;2091109;28;20033;-62
2023/12/14 00:01:22;;;;;;;5.57;3.20;;;;;;;;;;2091015;28;20048;-61
2023/12/14 00:02:23;;;;;;;4.78;3.17;;;;;;;;;;2091115;28;20095;-62
2023/12/14 00:03:24;;;;;;;5.00;3.40;;;;;;;;;;2090923;28;20028;-61
2023/12/14 00:04:24;;;;;;;4.13;2.40;;;;;;;;;;2091288;28;20037;-61
2023/12/14 00:05:26;;;;;;;4.20;2.80;;;;;;;;;;2090846;28;20193;-61
2023/12/14 00:06:26;;;;;;;5.22;2.88;;;;;;;;;;2091275;28;20037;-62
2023/12/14 00:07:27;;;;;;;3.10;2.22;;;;;;;;;;2091000;28;20041;-62
2023/12/14 00:08:28;;;;;;;3.78;2.58;;;;;;;;;;2091372;28;20107;-62
2023/12/14 00:09:28;;;;;;;5.28;2.95;;;;;;;;;;2090815;28;20041;-60
2023/12/14 00:10:29;;;;;;;3.38;2.28;;;;;;;;;;2090823;28;20025;-60
2023/12/14 00:11:30;;;;;;;4.15;2.92;;;;;;;;;;2090301;28;20132;-63
2023/12/14 00:12:31;;;;;;;3.33;2.00;;;;;;;;;;2090779;28;20041;-63
2023/12/14 00:13:32;;;;;;;4.40;3.22;;;;;;;;;;2090808;28;20397;-62
2023/12/14 00:14:32;;;;;;;5.05;3.15;;;;;;;;;;2090803;28;20090;-63
2023/12/14 00:15:33;;;;;;;4.72;2.95;;;;;;;;;;2091029;28;20025;-62
2023/12/14 00:16:34;;;;;;;3.60;2.63;;;;;;;;;;2090967;28;20037;-61
2023/12/14 00:17:35;;;;;;;2.90;1.92;;;;;;;;;;2091017;28;20044;-61
2023/12/14 00:18:35;;;;;;;3.13;2.17;;;;;;;;;;2090484;28;20049;-60
2023/12/14 00:19:36;;;;;;;2.72;1.80;;;;;;;;;;2090979;28;20033;-61
2023/12/14 00:20:37;;;;;;;3.72;2.70;;;;;;;;;;2091240;28;20029;-61
2023/12/14 00:21:37;;;;;;;2.50;1.70;;;;;;;;;;2090762;28;20049;-61
2023/12/14 00:22:38;;;;;;;3.60;2.25;;;;;;;;;;2091027;28;20041;-61
2023/12/14 00:23:39;;;;;;;3.22;2.25;;;;;;;;;;2090008;28;20091;-61
2023/12/14 00:24:40;;;;;;;2.72;1.63;;;;;;;;;;2090125;28;20405;-63
2023/12/14 00:25:40;;;;;;;2.72;1.63;;;;;;;;;;2091016;28;20462;-63
2023/12/14 00:26:41;;;;;;;3.20;1.98;;;;;;;;;;2090755;28;20032;-61
2023/12/14 00:27:42;;;;;;;3.10;2.00;;;;;;;;;;2090428;28;20044;-63
2023/12/14 00:28:42;;;;;;;2.78;1.63;;;;;;;;;;2089525;28;20044;-64
2023/12/14 00:29:43;;;;;;;2.40;1.52;;;;;;;;;;2090799;28;20458;-61
2023/12/14 00:30:44;;;;;;;3.60;1.55;;;;;;;;;;2090928;28;20051;-63
2023/12/14 00:31:44;;;;;;;3.05;1.92;;;;;;;;;;2090653;28;20470;-62
2023/12/14 00:32:45;;;;;;;3.05;1.70;;;;;;;;;;2090982;28;20029;-62
2023/12/14 00:33:46;;;;;;;2.83;1.60;;;;;;;;;;2090675;28;20049;-62
2023/12/14 00:34:47;;;;;;;2.78;1.77;;;;;;;;;;2090774;28;20076;-62
2023/12/14 00:35:47;;;;;;;2.80;1.73;;;;;;;;;;2090675;28;20052;-63
2023/12/14 00:36:48;;;;;;;2.20;1.40;;;;;;;;;;2090690;28;20049;-63
2023/12/14 00:37:49;;;;;;;2.72;1.27;;;;;;;;;;2090694;28;20388;-63
2023/12/14 00:38:49;;;;;;;2.00;1.30;;;;;;;;;;2091132;28;20041;-63
2023/12/14 00:39:50;;;;;;;1.75;1.25;;;;;;;;;;2090811;28;20040;-63
2023/12/14 00:40:51;;;;;;;1.88;1.30;;;;;;;;;;2090565;28;20032;-63
2023/12/14 00:41:52;;;;;;;2.60;1.60;;;;;;;;;;2090559;28;20032;-63
2023/12/14 00:42:52;;;;;;;3.38;1.45;;;;;;;;;;2090463;28;20066;-63
2023/12/14 00:43:53;;;;;;;1.95;1.40;;;;;;;;;;2089943;28;20111;-63
2023/12/14 00:44:54;;;;;;;2.60;1.58;;;;;;;;;;2091024;28;20032;-63
2023/12/14 00:45:55;;;;;;;2.45;1.50;;;;;;;;;;2090584;28;20456;-62
2023/12/14 00:46:58;;;;;;;2.85;1.63;;;;;;;;;;2090797;28;20036;-63
2023/12/14 00:47:58;;;;;;;2.45;1.63;;;;;;;;;;2090063;28;20405;-63
2023/12/14 00:48:59;;;;;;;2.60;1.42;;;;;;;;;;2090266;28;20021;-63
2023/12/14 00:50:00;;;;;;;3.47;1.60;;;;;;;;;;2090584;28;20037;-63
2023/12/14 00:51:01;;;;;;;3.40;1.73;;;;;;;;;;2090925;28;20040;-63
2023/12/14 00:52:02;;;;;;;3.50;1.50;;;;;;;;;;2090520;28;20024;-63
2023/12/14 00:53:02;;;;;;;2.38;1.70;;;;;;;;;;2090695;28;20033;-63
2023/12/14 00:54:03;;;;;;;3.08;1.83;;;;;;;;;;2090897;28;20024;-63
2023/12/14 00:55:04;;;;;;;4.22;2.60;;;;;;;;;;2090987;28;20056;-63
2023/12/14 00:56:07;;;;;;;2.88;1.40;;;;;;;;;;2090736;28;20108;-62
2023/12/14 00:57:08;;;;;;;3.10;2.05;;;;;;;;;;2090748;28;20057;-63
2023/12/14 00:58:08;;;;;;;3.10;1.80;;;;;;;;;;2090629;28;20036;-63
2023/12/14 00:59:09;;;;;;;3.05;2.03;;;;;;;;;;2090502;28;20040;-63
2023/12/14 01:00:10;;;;;;;3.08;2.20;;;;;;;;;;2090356;28;20037;-62
2023/12/14 01:01:11;;;;;;;3.35;2.40;;;;;;;;;;2090932;28;20060;-63
2023/12/14 01:02:12;;;;;;;4.25;2.90;;;;;;;;;;2090330;28;20504;-63
2023/12/14 01:03:12;;;;;;;4.80;2.70;;;;;;;;;;2090643;28;20037;-62
2023/12/14 01:04:13;;;;;;;4.53;2.90;;;;;;;;;;2089457;28;20037;-63
2023/12/14 01:05:14;;;;;;;4.72;3.10;;;;;;;;;;2090321;28;20041;-62
2023/12/14 01:06:14;;;;;;;4.47;2.95;;;;;;;;;;2090475;28;20473;-63
2023/12/14 01:07:15;;;;;;;4.68;3.40;;;;;;;;;;2090414;28;20037;-62
2023/12/14 01:08:16;;;;;;;4.60;2.75;;;;;;;;;;2090920;28;20350;-63
2023/12/14 01:09:17;;;;;;;6.60;3.53;;;;;;;;;;2090339;28;20064;-63
2023/12/14 01:10:17;;;;;;;4.35;2.90;;;;;;;;;;2090396;28;20457;-63
2023/12/14 01:11:18;;;;;;;5.65;3.47;;;;;;;;;;2089756;28;20041;-63
2023/12/14 01:12:19;;;;;;;4.90;3.67;;;;;;;;;;2087993;28;20092;-63
2023/12/14 01:13:19;;;;;;;6.65;3.45;;;;;;;;;;2091050;28;20148;-63
2023/12/14 01:14:20;;;;;;;5.15;3.22;;;;;;;;;;2091057;28;20045;-63
2023/12/14 01:15:21;;;;;;;6.57;3.47;;;;;;;;;;2090311;28;20445;-63
2023/12/14 01:16:22;;;;;;;5.28;3.78;;;;;;;;;;2090498;28;20473;-63
2023/12/14 01:17:22;;;;;;;4.82;3.38;;;;;;;;;;2089214;28;20096;-62
2023/12/14 01:18:24;;;;;;;4.72;2.95;;;;;;;;;;2089951;28;20050;-62
2023/12/14 01:19:25;;;;;;;5.60;3.85;;;;;;;;;;2090440;28;20040;-63
2023/12/14 01:20:26;;;;;;;5.90;3.47;;;;;;;;;;2090338;28;20029;-63
2023/12/14 01:21:26;;;;;;;6.57;3.72;;;;;;;;;;2090362;28;20049;-62
2023/12/14 01:22:27;;;;;;;5.78;4.00;;;;;;;;;;2090335;28;20151;-62
2023/12/14 01:23:28;;;;;;;7.22;4.28;;;;;;;;;;2090554;28;20477;-62
2023/12/14 01:24:28;;;;;;;6.28;4.50;;;;;;;;;;2090251;28;20045;-62
2023/12/14 01:25:29;;;;;;;11.32;3.83;;;;;;;;;;2090327;28;20040;-63
2023/12/14 01:26:30;;;;;;;7.22;4.80;;;;;;;;;;2090326;28;20076;-63
2023/12/14 01:27:30;;;;;;;6.63;4.55;;;;;;;;;;2090263;28;20036;-62
2023/12/14 01:28:31;;;;;;;5.22;3.72;;;;;;;;;;2090376;28;20389;-62
2023/12/14 01:29:32;;;;;;;6.22;4.18;;;;;;;;;;2090254;28;20029;-63
2023/12/14 01:30:33;;;;;;;5.97;3.97;;;;;;;;;;2090404;28;20044;-63
2023/12/14 01:31:33;;;;;;;5.72;3.80;;;;;;;;;;2090603;28;20060;-63
2023/12/14 01:32:34;;;;;;;6.10;4.28;;;;;;;;;;2090254;28;20049;-62
2023/12/14 01:33:35;;;;;;;6.80;4.88;;;;;;;;;;2090360;28;20383;-63
2023/12/14 01:34:35;;;;;;;6.00;4.25;;;;;;;;;;2090672;28;20103;-63
2023/12/14 01:35:36;;;;;;;7.15;5.20;;;;;;;;;;2090290;28;20029;-63
2023/12/14 01:36:37;;;;;;;8.07;5.22;;;;;;;;;;2090954;28;20045;-63
2023/12/14 01:37:37;;;;;;;7.72;5.43;;;;;;;;;;2090631;28;20047;-62
2023/12/14 01:38:38;;;;;;;9.02;5.30;;;;;;;;;;2090159;28;20458;-62
2023/12/14 01:39:39;;;;;;;6.97;4.55;;;;;;;;;;2090354;28;20556;-62
2023/12/14 01:40:40;;;;;;;7.47;5.05;;;;;;;;;;2090255;28;20400;-63
2023/12/14 01:41:40;;;;;;;7.75;5.20;;;;;;;;;;2090405;28;20112;-62
2023/12/14 01:42:41;;;;;;;6.38;3.75;;;;;;;;;;2090221;28;20025;-63
2023/12/14 01:43:42;;;;;;;7.97;5.38;;;;;;;;;;2090114;28;20037;-61
2023/12/14 01:44:43;;;;;;;8.10;5.78;;;;;;;;;;2090394;28;20115;-62
2023/12/14 01:45:43;;;;;;;7.10;5.07;;;;;;;;;;2090372;28;20025;-64
2023/12/14 01:46:44;;;;;;;7.80;5.45;;;;;;;;;;2090199;28;20057;-63
2023/12/14 01:47:45;;;;;;;6.75;4.75;;;;;;;;;;2089904;28;20045;-63
2023/12/14 01:48:45;;;;;;;6.57;5.25;;;;;;;;;;2089192;28;20425;-63
2023/12/14 01:49:46;;;;;;;7.32;5.38;;;;;;;;;;2089832;28;20477;-62
2023/12/14 01:50:47;;;;;;;6.88;4.75;;;;;;;;;;2090277;28;20036;-62
2023/12/14 01:51:48;;;;;;;7.78;5.28;;;;;;;;;;2090422;28;20033;-63
2023/12/14 01:52:48;;;;;;;6.10;4.03;;;;;;;;;;2090146;28;20029;-63
2023/12/14 01:53:49;;;;;;;7.32;4.57;;;;;;;;;;2090244;28;20055;-64
2023/12/14 01:54:50;;;;;;;6.38;4.65;;;;;;;;;;2090171;28;20481;-63
2023/12/14 01:55:50;;;;;;;7.32;4.70;;;;;;;;;;2089077;28;20045;-63
2023/12/14 01:56:51;;;;;;;7.30;4.97;;;;;;;;;;2089315;28;20048;-63
2023/12/14 01:57:52;;;;;;;6.25;4.40;;;;;;;;;;2090119;28;20040;-62
2023/12/14 01:58:53;;;;;;;7.50;5.55;;;;;;;;;;2090177;28;20493;-63
2023/12/14 01:59:53;;;;;;;8.45;4.88;;;;;;;;;;2090200;28;20037;-63
2023/12/14 02:01:03;;;;;;;7.18;4.40;;;;;;;;;;2090141;28;20037;-62
2023/12/14 02:02:05;;;;;;;7.05;5.60;;;;;;;;;;2090022;28;20412;-63
2023/12/14 02:03:06;;;;;;;6.45;4.55;;;;;;;;;;2090090;28;20040;-63
2023/12/14 02:04:07;;;;;;;7.03;4.65;;;;;;;;;;2090415;28;20044;-62
2023/12/14 02:05:07;;;;;;;7.28;4.95;;;;;;;;;;2090321;28;20033;-62
2023/12/14 02:06:08;;;;;;;5.85;4.22;;;;;;;;;;2090117;28;20398;-63
2023/12/14 02:07:09;;;;;;;7.05;4.97;;;;;;;;;;2090168;28;20469;-63
2023/12/14 02:08:09;;;;;;;6.28;3.80;;;;;;;;;;2090103;28;20060;-63
2023/12/14 02:09:10;;;;;;;5.85;4.18;;;;;;;;;;2090732;28;20052;-63
2023/12/14 02:10:11;;;;;;;5.65;4.40;;;;;;;;;;2090123;28;20033;-63
2023/12/14 02:11:12;;;;;;;5.97;4.00;;;;;;;;;;2090338;28;20052;-63
2023/12/14 02:12:12;;;;;;;5.68;4.35;;;;;;;;;;2089417;28;20448;-62
2023/12/14 02:13:13;;;;;;;5.63;3.80;;;;;;;;;;2090251;28;20029;-63
2023/12/14 02:14:14;;;;;;;5.63;3.65;;;;;;;;;;2090560;28;20036;-63
2023/12/14 02:15:14;;;;;;;4.95;3.28;;;;;;;;;;2090256;28;20029;-62
2023/12/14 02:16:15;;;;;;;4.68;3.15;;;;;;;;;;2090291;28;20472;-62
2023/12/14 02:17:16;;;;;;;5.15;3.50;;;;;;;;;;2090139;28;20029;-61
2023/12/14 02:18:16;;;;;;;6.20;4.10;;;;;;;;;;2090453;28;20045;-62
2023/12/14 02:19:17;;;;;;;5.25;3.50;;;;;;;;;;2090028;28;20040;-61
2023/12/14 02:20:18;;;;;;;4.47;3.08;;;;;;;;;;2090329;28;20151;-61
2023/12/14 02:21:19;;;;;;;4.78;3.10;;;;;;;;;;2090265;28;20469;-62
2023/12/14 02:22:19;;;;;;;4.30;3.08;;;;;;;;;;2090055;28;20068;-62
2023/12/14 02:23:20;;;;;;;5.97;3.10;;;;;;;;;;2090068;28;20049;-63
2023/12/14 02:24:21;;;;;;;6.15;2.78;;;;;;;;;;2089940;28;20021;-64
2023/12/14 02:25:22;;;;;;;3.97;2.38;;;;;;;;;;2090326;28;20040;-63
2023/12/14 02:26:23;;;;;;;5.28;2.75;;;;;;;;;;2090002;28;20497;-63
2023/12/14 02:27:23;;;;;;;4.40;2.85;;;;;;;;;;2090040;28;20033;-63
2023/12/14 02:28:24;;;;;;;3.08;1.40;;;;;;;;;;2090173;28;20052;-62
2023/12/14 02:29:25;;;;;;;4.35;2.38;;;;;;;;;;2090218;28;20432;-62
2023/12/14 02:30:26;;;;;;;3.50;2.03;;;;;;;;;;2090036;28;20542;-63
2023/12/14 02:31:26;;;;;;;2.63;1.67;;;;;;;;;;2090120;28;20052;-63
2023/12/14 02:32:27;;;;;;;3.83;2.65;;;;;;;;;;2090254;28;20503;-63
2023/12/14 02:33:28;;;;;;;3.28;2.13;;;;;;;;;;2090048;28;20045;-62
2023/12/14 02:34:28;;;;;;;4.72;2.30;;;;;;;;;;2090267;28;20037;-62
2023/12/14 02:35:29;;;;;;;3.58;2.30;;;;;;;;;;2090249;28;20045;-62
2023/12/14 02:36:30;;;;;;;3.30;2.03;;;;;;;;;;2090034;28;20098;-62
2023/12/14 02:37:31;;;;;;;3.00;1.77;;;;;;;;;;2090287;28;20428;-62
2023/12/14 02:38:33;;;;;;;4.10;2.00;;;;;;;;;;2089961;28;20037;-63
2023/12/14 02:39:33;;;;;;;3.00;2.00;;;;;;;;;;2090588;28;20049;-63
2023/12/14 02:40:34;;;;;;;4.15;2.20;;;;;;;;;;2090278;28;20036;-63
2023/12/14 02:41:35;;;;;;;2.63;1.50;;;;;;;;;;2090429;28;20029;-63
2023/12/14 02:42:35;;;;;;;2.90;1.98;;;;;;;;;;2089942;28;20033;-63
2023/12/14 02:43:37;;;;;;;3.03;1.75;;;;;;;;;;2090205;28;20082;-63
2023/12/14 02:44:38;;;;;;;2.63;1.58;;;;;;;;;;2089892;28;20049;-63
2023/12/14 02:45:39;;;;;;;2.10;1.48;;;;;;;;;;2089972;28;20045;-64
2023/12/14 02:46:39;;;;;;;3.00;1.60;;;;;;;;;;2090259;28;20480;-63
2023/12/14 02:47:40;;;;;;;3.83;1.73;;;;;;;;;;2090241;28;20037;-63
2023/12/14 02:48:42;;;;;;;2.28;1.50;;;;;;;;;;2089659;28;20064;-64
2023/12/14 02:49:43;;;;;;;3.40;1.50;;;;;;;;;;2089909;28;20040;-63
2023/12/14 02:50:44;;;;;;;2.72;1.73;;;;;;;;;;2090038;28;20032;-63
2023/12/14 02:51:45;;;;;;;2.60;1.63;;;;;;;;;;2090125;28;20040;-63
2023/12/14 02:52:45;;;;;;;3.90;1.77;;;;;;;;;;2091449;28;20071;-63
2023/12/14 02:53:46;;;;;;;3.53;1.73;;;;;;;;;;2091455;28;20108;-63
2023/12/14 02:54:47;;;;;;;1.67;0.98;;;;;;;;;;2091451;28;20053;-63
2023/12/14 02:55:47;;;;;;;2.70;1.60;;;;;;;;;;2091246;28;20037;-63
2023/12/14 02:56:48;;;;;;;2.75;1.88;;;;;;;;;;2091046;28;20072;-63
2023/12/14 02:57:49;;;;;;;3.28;2.13;;;;;;;;;;2091438;28;20060;-64
2023/12/14 02:58:51;;;;;;;3.03;2.03;;;;;;;;;;2091184;28;20061;-63
2023/12/14 02:59:51;;;;;;;4.20;1.73;;;;;;;;;;2091362;28;20055;-63
2023/12/14 03:00:52;;;;;;;2.72;1.58;;;;;;;;;;2091788;28;20036;-63
2023/12/14 03:01:53;;;;;;;3.60;1.90;;;;;;;;;;2091224;28;20040;-63
2023/12/14 03:02:54;;;;;;;3.90;2.03;;;;;;;;;;2091667;28;20033;-64
2023/12/14 03:03:54;;;;;;;3.15;1.67;;;;;;;;;;2091423;28;20094;-64
2023/12/14 03:04:55;;;;;;;2.95;1.98;;;;;;;;;;2091829;28;20045;-64
2023/12/14 03:05:56;;;;;;;2.58;1.58;;;;;;;;;;2091653;28;20025;-64
2023/12/14 03:06:56;;;;;;;2.47;1.60;;;;;;;;;;2091361;28;20044;-63
2023/12/14 03:07:57;;;;;;;1.92;1.13;;;;;;;;;;2091428;28;20485;-64
2023/12/14 03:08:58;;;;;;;3.65;1.48;;;;;;;;;;2091713;28;20040;-64
2023/12/14 03:09:59;;;;;;;3.35;1.83;;;;;;;;;;2091337;28;20029;-63
2023/12/14 03:11:00;;;;;;;2.90;1.80;;;;;;;;;;2091326;28;20045;-64
2023/12/14 03:12:01;;;;;;;2.70;1.48;;;;;;;;;;2091288;28;20029;-64
2023/12/14 03:13:01;;;;;;;4.78;1.80;;;;;;;;;;2091617;28;20362;-64
2023/12/14 03:14:02;;;;;;;3.50;1.73;;;;;;;;;;2091793;28;20029;-64
2023/12/14 03:15:03;;;;;;;4.15;2.13;;;;;;;;;;2091849;28;20048;-64
2023/12/14 03:16:04;;;;;;;4.03;2.60;;;;;;;;;;2091680;28;20090;-63
2023/12/14 03:17:05;;;;;;;3.47;2.00;;;;;;;;;;2091482;28;20032;-63
2023/12/14 03:18:06;;;;;;;3.75;1.45;;;;;;;;;;2091375;28;20035;-64
2023/12/14 03:19:07;;;;;;;3.03;1.73;;;;;;;;;;2091323;28;20504;-64
2023/12/14 03:20:08;;;;;;;2.83;1.60;;;;;;;;;;2091278;28;20029;-64
2023/12/14 03:21:09;;;;;;;3.20;2.00;;;;;;;;;;2091251;28;20036;-64
2023/12/14 03:22:09;;;;;;;3.08;1.90;;;;;;;;;;2091619;28;20054;-63
2023/12/14 03:23:10;;;;;;;4.18;1.90;;;;;;;;;;2091238;28;20397;-64
2023/12/14 03:24:11;;;;;;;4.68;1.52;;;;;;;;;;2091169;28;20033;-62
2023/12/14 03:25:12;;;;;;;4.05;1.80;;;;;;;;;;2091241;28;20115;-63
2023/12/14 03:26:13;;;;;;;4.53;2.35;;;;;;;;;;2091200;28;20044;-64
2023/12/14 03:27:14;;;;;;;5.10;2.08;;;;;;;;;;2091224;28;20044;-64
2023/12/14 03:28:15;;;;;;;3.60;1.67;;;;;;;;;;2091392;28;20033;-63
2023/12/14 03:29:16;;;;;;;3.72;2.15;;;;;;;;;;2091257;28;20398;-63
2023/12/14 03:30:17;;;;;;;3.88;2.28;;;;;;;;;;2091061;28;20041;-63
2023/12/14 03:31:18;;;;;;;4.00;2.10;;;;;;;;;;2091428;28;20036;-63
2023/12/14 03:32:18;;;;;;;3.67;2.13;;;;;;;;;;2091590;28;20051;-64
2023/12/14 03:33:19;;;;;;;3.92;1.98;;;;;;;;;;2091147;28;20029;-64
2023/12/14 03:34:20;;;;;;;2.53;1.60;;;;;;;;;;2091095;28;20040;-63
2023/12/14 03:35:20;;;;;;;3.90;2.03;;;;;;;;;;2091190;28;20029;-64
2023/12/14 03:36:22;;;;;;;4.15;1.90;;;;;;;;;;2090855;28;20512;-64
2023/12/14 03:37:23;;;;;;;4.20;2.60;;;;;;;;;;2091143;28;20040;-64
2023/12/14 03:38:24;;;;;;;4.55;2.80;;;;;;;;;;2091136;28;20508;-64
2023/12/14 03:39:24;;;;;;;6.68;2.85;;;;;;;;;;2090998;28;20033;-64
2023/12/14 03:40:25;;;;;;;6.28;3.13;;;;;;;;;;2091048;28;20029;-64
2023/12/14 03:41:26;;;;;;;4.85;2.95;;;;;;;;;;2091102;28;20033;-63
2023/12/14 03:42:26;;;;;;;4.40;2.83;;;;;;;;;;2091509;28;20355;-64
2023/12/14 03:43:27;;;;;;;5.50;2.97;;;;;;;;;;2091764;28;20040;-64
2023/12/14 03:44:28;;;;;;;4.63;3.08;;;;;;;;;;2091073;28;20060;-63
2023/12/14 03:45:29;;;;;;;4.63;2.92;;;;;;;;;;2091469;28;20049;-64
2023/12/14 03:46:29;;;;;;;6.60;3.70;;;;;;;;;;2091126;28;20041;-64
2023/12/14 03:47:30;;;;;;;5.45;3.20;;;;;;;;;;2090690;28;20116;-63
2023/12/14 03:48:31;;;;;;;6.78;3.83;;;;;;;;;;2091356;28;20492;-64
2023/12/14 03:49:36;;;;;;;6.05;3.25;;;;;;;;;;2091132;28;20041;-64
2023/12/14 03:50:37;;;;;;;6.90;4.25;;;;;;;;;;2090693;28;20040;-64
2023/12/14 03:51:37;;;;;;;6.97;4.13;;;;;;;;;;2090398;28;20102;-64
2023/12/14 03:52:38;;;;;;;5.55;3.75;;;;;;;;;;2090787;28;20052;-63
2023/12/14 03:53:39;;;;;;;7.35;3.90;;;;;;;;;;2090958;28;20040;-64
2023/12/14 03:54:40;;;;;;;8.10;4.03;;;;;;;;;;2091363;28;20037;-64
2023/12/14 03:55:41;;;;;;;4.93;3.50;;;;;;;;;;2091074;28;20042;-64
2023/12/14 03:56:42;;;;;;;7.63;3.80;;;;;;;;;;2090941;28;20041;-63
2023/12/14 03:57:42;;;;;;;5.22;3.35;;;;;;;;;;2091235;28;20037;-64
2023/12/14 03:58:43;;;;;;;7.85;3.47;;;;;;;;;;2090885;28;20458;-63
2023/12/14 03:59:44;;;;;;;7.50;4.05;;;;;;;;;;2091056;28;20032;-64
2023/12/14 04:00:44;;;;;;;6.45;3.90;;;;;;;;;;2090114;28;20401;-63
2023/12/14 04:01:45;;;;;;;5.68;3.63;;;;;;;;;;2090152;28;20140;-63
2023/12/14 04:02:46;;;;;;;6.30;3.80;;;;;;;;;;2090780;28;20037;-64
2023/12/14 04:03:47;;;;;;;7.90;4.78;;;;;;;;;;2089872;28;20182;-63
2023/12/14 04:04:48;;;;;;;7.00;3.85;;;;;;;;;;2091143;28;20025;-64
2023/12/14 04:05:48;;;;;;;6.28;4.00;;;;;;;;;;2090874;28;20469;-64
2023/12/14 04:06:51;;;;;;;6.65;4.25;;;;;;;;;;2091091;28;20033;-64
2023/12/14 04:07:51;;;;;;;7.88;4.00;;;;;;;;;;2091120;28;20032;-63
2023/12/14 04:08:52;;;;;;;7.97;4.53;;;;;;;;;;2090784;28;20037;-63
2023/12/14 04:09:53;;;;;;;7.07;4.60;;;;;;;;;;2091029;28;20025;-64
2023/12/14 04:10:53;;;;;;;8.43;4.50;;;;;;;;;;2090805;28;20420;-64
2023/12/14 04:11:54;;;;;;;6.20;4.13;;;;;;;;;;2090394;28;20029;-64
2023/12/14 04:12:55;;;;;;;4.65;3.03;;;;;;;;;;2090911;28;20029;-63
2023/12/14 04:13:56;;;;;;;5.50;4.03;;;;;;;;;;2091539;28;20036;-64
2023/12/14 04:14:56;;;;;;;5.90;3.97;;;;;;;;;;2090485;28;20097;-64
2023/12/14 04:15:57;;;;;;;8.15;4.32;;;;;;;;;;2091208;28;20037;-63
2023/12/14 04:16:58;;;;;;;11.95;4.85;;;;;;;;;;2090515;28;20098;-63
2023/12/14 04:17:59;;;;;;;7.07;5.00;;;;;;;;;;2090816;28;20044;-63
2023/12/14 04:18:59;;;;;;;6.30;4.63;;;;;;;;;;2090819;28;20033;-64
2023/12/14 04:20:00;;;;;;;6.53;4.35;;;;;;;;;;2091544;28;20051;-64
2023/12/14 04:21:01;;;;;;;9.00;4.63;;;;;;;;;;2091431;28;20045;-63
2023/12/14 04:22:01;;;;;;;7.70;4.93;;;;;;;;;;2090820;28;20071;-63
2023/12/14 04:23:02;;;;;;;7.03;4.50;;;;;;;;;;2090622;28;20037;-63
2023/12/14 04:24:03;;;;;;;6.32;4.55;;;;;;;;;;2090744;28;20033;-63
2023/12/14 04:25:04;;;;;;;8.82;5.20;;;;;;;;;;2090876;28;20052;-63
2023/12/14 04:26:05;;;;;;;6.30;4.65;;;;;;;;;;2091375;28;20048;-63
2023/12/14 04:27:06;;;;;;;8.13;4.43;;;;;;;;;;2090735;28;20454;-63
2023/12/14 04:28:06;;;;;;;6.13;3.97;;;;;;;;;;2090723;28;20393;-63
2023/12/14 04:29:07;;;;;;;6.75;4.28;;;;;;;;;;2090687;28;20029;-64
2023/12/14 04:30:11;;;;;;;7.18;4.38;;;;;;;;;;2090846;28;20029;-64
2023/12/14 04:31:12;;;;;;;7.50;4.43;;;;;;;;;;2090644;28;20036;-63
2023/12/14 04:32:13;;;;;;;6.57;3.90;;;;;;;;;;2090664;28;20033;-63
2023/12/14 04:33:13;;;;;;;6.43;4.10;;;;;;;;;;2090718;28;20044;-63
2023/12/14 04:34:15;;;;;;;7.00;4.70;;;;;;;;;;2091046;28;20041;-63
2023/12/14 04:35:16;;;;;;;6.65;4.05;;;;;;;;;;2090683;28;20053;-63
2023/12/14 04:36:17;;;;;;;6.13;4.55;;;;;;;;;;2090700;28;20041;-62
2023/12/14 04:37:17;;;;;;;7.68;5.15;;;;;;;;;;2090785;28;20374;-62
2023/12/14 04:38:18;;;;;;;6.93;4.45;;;;;;;;;;2090693;28;20041;-63
2023/12/14 04:39:19;;;;;;;7.78;4.50;;;;;;;;;;2090596;28;20060;-62
2023/12/14 04:40:19;;;;;;;6.05;3.95;;;;;;;;;;2090668;28;20049;-63
2023/12/14 04:41:20;;;;;;;6.80;4.18;;;;;;;;;;2090801;28;20033;-63
2023/12/14 04:42:21;;;;;;;6.72;4.28;;;;;;;;;;2090679;28;20051;-62
2023/12/14 04:43:22;;;;;;;7.70;4.30;;;;;;;;;;2090827;28;20048;-64
2023/12/14 04:44:22;;;;;;;7.00;4.57;;;;;;;;;;2090598;28;20405;-62
2023/12/14 04:45:23;;;;;;;7.47;4.25;;;;;;;;;;2090507;28;20045;-63
2023/12/14 04:46:24;;;;;;;5.57;3.97;;;;;;;;;;2090883;28;20036;-62
2023/12/14 04:47:24;;;;;;;6.90;4.43;;;;;;;;;;2090538;28;20029;-63
2023/12/14 04:48:25;;;;;;;7.45;3.72;;;;;;;;;;2091187;28;20017;-63
2023/12/14 04:49:26;;;;;;;8.00;3.92;;;;;;;;;;2090824;28;20032;-63
2023/12/14 04:50:27;;;;;;;7.90;4.40;;;;;;;;;;2090504;28;20048;-63
2023/12/14 04:51:27;;;;;;;7.93;4.45;;;;;;;;;;2090664;28;20060;-63
2023/12/14 04:52:28;;;;;;;5.85;3.50;;;;;;;;;;2090511;28;20489;-64
2023/12/14 04:53:29;;;;;;;8.75;4.35;;;;;;;;;;2090630;28;20408;-63
2023/12/14 04:54:30;;;;;;;6.50;3.53;;;;;;;;;;2090943;28;20041;-63
2023/12/14 04:55:30;;;;;;;6.07;3.53;;;;;;;;;;2090588;28;20033;-63
2023/12/14 04:56:31;;;;;;;5.65;3.67;;;;;;;;;;2090057;28;20048;-64
2023/12/14 04:57:32;;;;;;;5.30;3.38;;;;;;;;;;2089944;28;20443;-63
2023/12/14 04:58:32;;;;;;;7.85;3.58;;;;;;;;;;2090463;28;20132;-63
2023/12/14 04:59:33;;;;;;;7.40;3.60;;;;;;;;;;2090441;28;20033;-63
2023/12/14 05:00:34;;;;;;;6.30;3.83;;;;;;;;;;2090348;28;20378;-63
2023/12/14 05:01:35;;;;;;;6.60;3.65;;;;;;;;;;2090582;28;20040;-63
2023/12/14 05:02:35;;;;;;;5.82;3.65;;;;;;;;;;2090642;28;20146;-63
2023/12/14 05:03:36;;;;;;;8.55;3.80;;;;;;;;;;2090158;28;20049;-63
2023/12/14 05:04:37;;;;;;;6.78;3.63;;;;;;;;;;2090422;28;20045;-62
2023/12/14 05:05:38;;;;;;;5.43;3.40;;;;;;;;;;2090428;28;20133;-63
2023/12/14 05:06:38;;;;;;;5.72;3.88;;;;;;;;;;2090398;28;20056;-63
2023/12/14 05:07:39;;;;;;;9.38;4.05;;;;;;;;;;2090233;28;20520;-63
2023/12/14 05:08:40;;;;;;;7.97;4.20;;;;;;;;;;2090651;28;20081;-63
2023/12/14 05:09:40;;;;;;;7.90;4.05;;;;;;;;;;2090799;28;20120;-63
2023/12/14 05:10:41;;;;;;;6.47;3.65;;;;;;;;;;2090422;28;20400;-63
2023/12/14 05:11:45;;;;;;;5.65;3.50;;;;;;;;;;2090408;28;20476;-63
2023/12/14 05:12:45;;;;;;;7.60;3.88;;;;;;;;;;2089668;28;20045;-63
2023/12/14 05:13:46;;;;;;;7.72;3.97;;;;;;;;;;2090703;28;20033;-63
2023/12/14 05:14:47;;;;;;;8.65;4.22;;;;;;;;;;2090157;28;20397;-63
2023/12/14 05:15:48;;;;;;;8.43;3.55;;;;;;;;;;2090941;28;20049;-63
2023/12/14 05:16:48;;;;;;;7.90;4.10;;;;;;;;;;2090597;28;20026;-63
2023/12/14 05:17:49;;;;;;;9.23;3.83;;;;;;;;;;2090490;28;20041;-63
2023/12/14 05:18:50;;;;;;;6.68;3.53;;;;;;;;;;2090517;28;20045;-64
2023/12/14 05:19:50;;;;;;;7.10;4.30;;;;;;;;;;2090447;28;20032;-62
2023/12/14 05:20:51;;;;;;;6.28;3.78;;;;;;;;;;2089363;28;20530;-63
2023/12/14 05:21:54;;;;;;;6.35;4.07;;;;;;;;;;2090022;28;20373;-63
2023/12/14 05:22:55;;;;;;;7.90;4.00;;;;;;;;;;2090758;28;20056;-63
2023/12/14 05:23:55;;;;;;;7.15;3.90;;;;;;;;;;2090559;28;20035;-63
2023/12/14 05:24:56;;;;;;;9.77;4.15;;;;;;;;;;2090282;28;20040;-64
2023/12/14 05:25:57;;;;;;;6.15;4.22;;;;;;;;;;2090428;28;20032;-62
2023/12/14 05:26:58;;;;;;;6.80;4.13;;;;;;;;;;2091123;28;20037;-63
2023/12/14 05:27:58;;;;;;;6.30;3.70;;;;;;;;;;2090908;28;20460;-63
2023/12/14 05:28:59;;;;;;;7.50;3.85;;;;;;;;;;2090639;28;20032;-63
2023/12/14 05:30:00;;;;;;;6.95;3.90;;;;;;;;;;2090092;28;20051;-63
2023/12/14 05:31:00;;;;;;;7.80;4.00;;;;;;;;;;2090625;28;20071;-62
2023/12/14 05:32:01;;;;;;;12.32;3.95;;;;;;;;;;2090686;28;20044;-63
2023/12/14 05:33:02;;;;;;;6.85;3.35;;;;;;;;;;2090733;28;20140;-63
2023/12/14 05:34:03;;;;;;;6.43;3.88;;;;;;;;;;2090230;28;20041;-63
2023/12/14 05:35:04;;;;;;;6.55;3.60;;;;;;;;;;2090635;28;20029;-61
2023/12/14 05:36:08;;;;;;;6.35;3.78;;;;;;;;;;2090442;28;20039;-63
2023/12/14 05:37:09;;;;;;;6.00;3.80;;;;;;;;;;2090766;28;20047;-63
2023/12/14 05:38:09;;;;;;;5.45;3.45;;;;;;;;;;2089742;28;20412;-63
2023/12/14 05:39:10;;;;;;;8.63;4.00;;;;;;;;;;2089405;28;20056;-63
2023/12/14 05:40:11;;;;;;;7.45;4.03;;;;;;;;;;2090508;28;20025;-63
2023/12/14 05:41:12;;;;;;;7.53;3.53;;;;;;;;;;2090369;28;20048;-63
2023/12/14 05:42:15;;;;;;;5.63;3.92;;;;;;;;;;2090189;28;20032;-63
2023/12/14 05:43:16;;;;;;;11.35;3.90;;;;;;;;;;2090355;28;20037;-63
2023/12/14 05:44:16;;;;;;;7.30;4.10;;;;;;;;;;2090278;28;20033;-62
2023/12/14 05:45:18;;;;;;;6.78;4.35;;;;;;;;;;2090481;28;20044;-63
2023/12/14 05:46:22;;;;;;;6.80;4.00;;;;;;;;;;2090139;28;20029;-62
2023/12/14 05:47:25;;;;;;;9.27;4.50;;;;;;;;;;2090214;28;20048;-62
2023/12/14 05:48:28;;;;;;;7.13;4.85;;;;;;;;;;2090216;28;20489;-62
2023/12/14 05:49:29;;;;;;;7.15;4.53;;;;;;;;;;2090551;28;20045;-63
2023/12/14 05:50:29;;;;;;;9.05;4.90;;;;;;;;;;2090358;28;20481;-64
2023/12/14 05:51:31;;;;;;;7.45;4.88;;;;;;;;;;2090451;28;20040;-64
2023/12/14 05:52:31;;;;;;;7.25;4.43;;;;;;;;;;2090307;28;20045;-63
2023/12/14 05:53:36;;;;;;;6.57;4.47;;;;;;;;;;2090486;28;20136;-64
2023/12/14 05:54:37;;;;;;;8.15;4.45;;;;;;;;;;2090251;28;20033;-64
2023/12/14 05:55:39;;;;;;;7.72;4.88;;;;;;;;;;2090492;28;20037;-63
2023/12/14 05:56:41;;;;;;;7.40;4.70;;;;;;;;;;2090517;28;20040;-63
2023/12/14 05:57:41;;;;;;;7.25;4.80;;;;;;;;;;2090361;28;20159;-63
2023/12/14 05:58:42;;;;;;;9.85;4.68;;;;;;;;;;2090087;28;20029;-63
2023/12/14 05:59:43;;;;;;;8.68;5.28;;;;;;;;;;2090259;28;20025;-63
2023/12/14 06:00:43;;;;;;;8.63;5.38;;;;;;;;;;2090517;28;20033;-63
2023/12/14 06:01:44;;;;;;;6.35;4.40;;;;;;;;;;2090397;28;20052;-63
2023/12/14 06:02:45;;;;;;;8.98;5.47;;;;;;;;;;2090128;28;20500;-63
2023/12/14 06:03:46;;;;;;;8.15;4.97;;;;;;;;;;2090430;28;20033;-64
2023/12/14 06:04:46;;;;;;;9.90;5.53;;;;;;;;;;2090149;28;20033;-63